createdAt,value
2023-02-11T00:01:08.008Z,3.75
2023-02-11T00:03:34.845Z,4.47
2023-02-11T00:06:04.182Z,5.35
2023-02-11T00:08:31.018Z,5.20
2023-02-11T00:10:58.384Z,6.18
2023-02-11T00:13:25.612Z,7.03
2023-02-11T00:15:52.817Z,5.38
2023-02-11T00:18:19.726Z,5.38
2023-02-11T00:20:46.502Z,6.03
2023-02-11T00:23:13.965Z,5.47
2023-02-11T00:25:42.076Z,5.20
2023-02-11T00:28:09.400Z,5.00
2023-02-11T00:30:36.683Z,4.10
2023-02-11T00:33:03.845Z,4.65
2023-02-11T00:35:32.392Z,4.47
2023-02-11T00:38:00.301Z,4.30
2023-02-11T00:40:27.176Z,4.00
2023-02-11T00:42:53.943Z,5.78
2023-02-11T00:45:21.455Z,4.32
2023-02-11T00:47:48.412Z,5.57
2023-02-11T00:50:15.160Z,5.72
2023-02-11T00:52:42.026Z,4.15
2023-02-11T00:55:09.294Z,5.10
2023-02-11T00:57:36.178Z,3.53
2023-02-11T01:00:04.594Z,3.95
2023-02-11T01:02:31.447Z,3.90
2023-02-11T01:04:59.860Z,5.75
2023-02-11T01:07:27.972Z,4.75
2023-02-11T01:09:54.982Z,2.90
2023-02-11T01:12:21.870Z,4.88
2023-02-11T01:14:48.915Z,5.47
2023-02-11T01:17:18.435Z,3.58
2023-02-11T01:19:45.352Z,3.85
2023-02-11T01:22:12.166Z,3.22
2023-02-11T01:24:39.396Z,3.35
2023-02-11T01:27:07.730Z,3.33
2023-02-11T01:29:34.656Z,3.90
2023-02-11T01:32:01.725Z,4.65
2023-02-11T01:34:28.750Z,3.30
2023-02-11T01:36:59.521Z,3.28
2023-02-11T01:39:28.762Z,2.90
2023-02-11T01:41:55.699Z,4.28
2023-02-11T01:44:41.361Z,4.82
2023-02-11T01:47:09.269Z,3.40
2023-02-11T01:49:39.257Z,3.83
2023-02-11T01:52:10.265Z,4.63
2023-02-11T01:55:00.068Z,5.85
2023-02-11T01:57:29.933Z,3.75
2023-02-11T02:00:17.103Z,4.30
2023-02-11T02:02:55.887Z,4.25
2023-02-11T02:05:33.600Z,5.70
2023-02-11T02:08:00.690Z,4.47
2023-02-11T02:10:28.244Z,4.05
2023-02-11T02:12:55.044Z,4.00
2023-02-11T02:15:27.109Z,2.83
2023-02-11T02:17:59.640Z,3.65
2023-02-11T02:20:59.582Z,3.60
2023-02-11T02:23:29.187Z,3.25
2023-02-11T02:28:35.016Z,3.22
2023-02-11T02:31:18.117Z,3.25
2023-02-11T02:34:03.884Z,4.47
2023-02-11T02:36:44.220Z,3.58
2023-02-11T02:39:15.766Z,4.13
2023-02-11T02:41:43.051Z,4.95
2023-02-11T02:44:09.807Z,4.65
2023-02-11T02:46:37.324Z,3.40
2023-02-11T02:49:07.165Z,3.05
2023-02-11T02:52:01.879Z,5.70
2023-02-11T02:54:48.064Z,3.55
2023-02-11T02:57:44.595Z,3.92
2023-02-11T03:00:26.763Z,3.53
2023-02-11T03:03:15.851Z,4.38
2023-02-11T03:05:45.550Z,3.17
2023-02-11T03:08:17.939Z,3.08
2023-02-11T03:10:47.697Z,3.95
2023-02-11T03:15:46.998Z,3.70
2023-02-11T03:18:16.311Z,3.85
2023-02-11T03:20:45.762Z,4.18
2023-02-11T03:23:24.116Z,3.45
2023-02-11T03:25:56.996Z,4.57
2023-02-11T03:28:31.064Z,2.85
2023-02-11T03:31:35.362Z,3.75
2023-02-11T03:34:19.365Z,3.47
2023-02-11T03:36:52.398Z,4.57
2023-02-11T03:39:25.672Z,5.10
2023-02-11T03:41:55.274Z,3.92
2023-02-11T03:44:23.919Z,3.47
2023-02-11T03:46:52.476Z,3.80
2023-02-11T03:49:21.625Z,4.05
2023-02-11T03:51:51.792Z,4.68
2023-02-11T03:54:21.467Z,4.78
2023-02-11T03:56:54.597Z,4.28
2023-02-11T03:59:21.545Z,3.95
2023-02-11T04:01:48.240Z,4.65
2023-02-11T04:04:15.330Z,5.43
2023-02-11T04:06:42.253Z,4.25
2023-02-11T04:09:09.507Z,4.47
2023-02-11T04:11:36.333Z,3.83
2023-02-11T04:14:03.561Z,3.47
2023-02-11T04:16:31.103Z,5.03
2023-02-11T04:18:57.994Z,6.47
2023-02-11T04:21:24.852Z,5.93
2023-02-11T04:23:51.582Z,3.85
2023-02-11T04:26:18.249Z,4.13
2023-02-11T04:28:45.103Z,4.45
2023-02-11T04:31:12.948Z,3.97
2023-02-11T04:33:39.733Z,4.03
2023-02-11T04:36:06.889Z,3.47
2023-02-11T04:38:33.558Z,3.70
2023-02-11T04:41:00.611Z,3.28
2023-02-11T04:43:27.423Z,4.25
2023-02-11T04:45:57.661Z,5.03
2023-02-11T04:48:24.992Z,5.00
2023-02-11T04:50:51.836Z,3.78
2023-02-11T04:53:18.587Z,5.75
2023-02-11T04:55:45.315Z,5.40
2023-02-11T04:58:12.133Z,3.95
2023-02-11T05:00:38.827Z,4.45
2023-02-11T05:03:05.635Z,3.50
2023-02-11T05:05:32.464Z,2.60
2023-02-11T05:07:59.146Z,3.67
2023-02-11T05:10:25.849Z,4.13
2023-02-11T05:12:55.284Z,4.15
2023-02-11T05:15:22.698Z,6.00
2023-02-11T05:17:49.402Z,4.43
2023-02-11T05:20:16.121Z,4.20
2023-02-11T05:22:43.022Z,5.45
2023-02-11T05:25:09.988Z,4.95
2023-02-11T05:27:36.954Z,5.03
2023-02-11T05:30:05.379Z,5.57
2023-02-11T05:32:32.454Z,5.30
2023-02-11T05:34:59.312Z,4.63
2023-02-11T05:37:26.303Z,4.57
2023-02-11T05:39:53.173Z,5.50
2023-02-11T05:42:20.072Z,5.88
2023-02-11T05:44:48.511Z,4.43
2023-02-11T05:47:17.378Z,3.42
2023-02-11T05:49:44.280Z,4.55
2023-02-11T05:52:11.185Z,3.05
2023-02-11T05:54:38.060Z,5.43
2023-02-11T05:57:04.745Z,4.57
2023-02-11T05:59:31.483Z,5.85
2023-02-11T06:01:58.264Z,8.32
2023-02-11T06:04:25.103Z,6.80
2023-02-11T06:06:51.933Z,8.10
2023-02-11T06:09:18.636Z,7.03
2023-02-11T06:11:45.338Z,4.63
2023-02-11T06:14:12.249Z,5.15
2023-02-11T06:16:38.983Z,5.60
2023-02-11T06:19:06.065Z,5.72
2023-02-11T06:21:43.521Z,5.30
2023-02-11T06:24:10.811Z,4.93
2023-02-11T06:26:37.522Z,5.47
2023-02-11T06:29:04.320Z,6.60
2023-02-11T06:31:31.177Z,6.45
2023-02-11T06:33:59.288Z,8.80
2023-02-11T06:36:26.156Z,8.50
2023-02-11T06:38:53.143Z,9.85
2023-02-11T06:41:20.417Z,10.43
2023-02-11T06:43:47.613Z,8.13
2023-02-11T06:46:14.777Z,7.57
2023-02-11T06:48:44.399Z,8.55
2023-02-11T06:51:13.323Z,7.63
2023-02-11T06:53:47.090Z,7.53
2023-02-11T06:56:20.346Z,8.13
2023-02-11T06:58:47.887Z,9.02
2023-02-11T07:01:16.366Z,7.18
2023-02-11T07:03:45.262Z,7.00
2023-02-11T07:06:15.101Z,7.75
2023-02-11T07:08:43.130Z,8.98
2023-02-11T07:11:12.340Z,9.52
2023-02-11T07:13:39.135Z,9.07
2023-02-11T07:16:11.404Z,9.13
2023-02-11T07:18:38.283Z,11.43
2023-02-11T07:21:09.563Z,9.95
2023-02-11T07:23:37.080Z,9.95
2023-02-11T07:26:13.444Z,10.30
2023-02-11T07:28:41.566Z,9.10
2023-02-11T07:31:11.562Z,10.15
2023-02-11T07:33:38.601Z,10.55
2023-02-11T07:36:07.141Z,10.52
2023-02-11T07:38:35.058Z,8.75
2023-02-11T07:41:07.307Z,8.07
2023-02-11T07:43:35.021Z,7.80
2023-02-11T07:46:08.140Z,8.40
2023-02-11T07:48:35.089Z,8.68
2023-02-11T07:51:09.801Z,9.52
2023-02-11T07:53:36.935Z,9.18
2023-02-11T07:56:05.479Z,9.70
2023-02-11T07:58:32.671Z,8.50
2023-02-11T08:01:07.278Z,7.93
2023-02-11T08:03:35.076Z,7.82
2023-02-11T08:06:06.671Z,6.80
2023-02-11T08:08:33.596Z,7.57
2023-02-11T08:11:12.476Z,7.95
2023-02-11T08:13:39.352Z,8.45
2023-02-11T08:16:06.747Z,7.80
2023-02-11T08:21:19.052Z,8.48
2023-02-11T08:23:46.555Z,8.98
2023-02-11T08:26:22.346Z,8.20
2023-02-11T08:28:51.131Z,8.57
2023-02-11T08:31:26.558Z,7.65
2023-02-11T08:36:23.987Z,7.70
2023-02-11T08:38:50.896Z,7.63
2023-02-11T08:41:18.338Z,7.78
2023-02-11T08:43:45.883Z,7.50
2023-02-11T08:46:17.822Z,7.40
2023-02-11T08:48:45.165Z,7.72
2023-02-11T08:51:15.404Z,8.50
2023-02-11T08:53:42.209Z,8.63
2023-02-11T08:56:13.229Z,7.95
2023-02-11T08:58:40.494Z,7.70
2023-02-11T09:01:17.385Z,8.50
2023-02-11T09:03:44.639Z,8.68
2023-02-11T09:06:12.244Z,8.52
2023-02-11T09:08:41.317Z,9.18
2023-02-11T09:11:08.348Z,8.60
2023-02-11T09:13:35.152Z,9.55
2023-02-11T09:16:04.240Z,9.60
2023-02-11T09:18:31.634Z,9.48
2023-02-11T09:21:06.455Z,10.10
2023-02-11T09:23:34.593Z,10.57
2023-02-11T09:26:19.650Z,9.65
2023-02-11T09:28:47.204Z,10.25
2023-02-11T09:31:16.837Z,9.50
2023-02-11T09:33:48.019Z,9.43
2023-02-11T09:36:20.515Z,9.90
2023-02-11T09:38:48.689Z,9.43
2023-02-11T09:41:24.755Z,9.23
2023-02-11T09:43:56.964Z,10.55
2023-02-11T09:46:25.393Z,8.00
2023-02-11T09:48:54.397Z,8.20
2023-02-11T09:51:41.346Z,9.07
2023-02-11T09:54:15.702Z,11.02
2023-02-11T09:56:42.534Z,10.23
2023-02-11T09:59:15.654Z,10.55
2023-02-11T10:01:48.553Z,10.75
2023-02-11T10:04:53.998Z,11.32
2023-02-11T10:07:43.878Z,8.85
2023-02-11T10:10:22.455Z,10.50
2023-02-11T10:13:10.655Z,9.35
2023-02-11T10:15:55.156Z,9.18
2023-02-11T10:18:27.876Z,9.02
2023-02-11T10:21:04.619Z,8.77
2023-02-11T10:23:34.604Z,10.07
2023-02-11T10:26:01.601Z,10.52
2023-02-11T10:28:31.836Z,8.77
2023-02-11T10:31:04.252Z,9.20
2023-02-11T10:33:43.589Z,7.72
2023-02-11T10:36:12.277Z,8.20
2023-02-11T10:38:39.697Z,8.80
2023-02-11T10:41:07.198Z,8.20
2023-02-11T10:43:34.932Z,8.18
2023-02-11T10:46:03.441Z,8.52
2023-02-11T10:51:21.547Z,9.70
2023-02-11T10:54:19.489Z,7.43
2023-02-11T10:56:52.179Z,9.77
2023-02-11T10:59:40.433Z,7.32
2023-02-11T11:02:08.042Z,7.55
2023-02-11T11:04:34.769Z,8.13
2023-02-11T11:07:22.302Z,6.25
2023-02-11T11:10:08.547Z,7.20
2023-02-11T11:12:36.788Z,8.07
2023-02-11T11:15:22.996Z,7.93
2023-02-11T11:17:51.307Z,7.95
2023-02-11T11:22:51.936Z,7.15
2023-02-11T11:25:27.478Z,8.77
2023-02-11T11:27:57.097Z,7.82
2023-02-11T11:30:43.554Z,6.90
2023-02-11T11:33:36.703Z,7.07
2023-02-11T11:36:05.136Z,7.07
2023-02-11T11:38:33.393Z,8.10
2023-02-11T11:41:27.231Z,9.32
2023-02-11T11:44:23.097Z,8.10
2023-02-11T11:46:55.924Z,8.05
2023-02-11T11:49:30.003Z,8.77
2023-02-11T11:52:12.573Z,8.00
2023-02-11T11:54:40.332Z,6.85
2023-02-11T11:57:17.787Z,7.43
2023-02-11T11:59:44.832Z,7.70
2023-02-11T12:02:52.585Z,6.85
2023-02-11T12:05:25.427Z,7.55
2023-02-11T12:08:10.458Z,7.13
2023-02-11T12:11:02.080Z,7.97
2023-02-11T12:13:41.166Z,5.93
2023-02-11T12:16:37.020Z,7.65
2023-02-11T12:19:25.294Z,8.38
2023-02-11T12:22:19.214Z,6.20
2023-02-11T12:24:57.299Z,6.82
2023-02-11T12:27:27.170Z,6.90
2023-02-11T12:30:16.450Z,5.68
2023-02-11T12:32:59.485Z,7.18
2023-02-11T12:35:38.606Z,6.10
2023-02-11T12:38:11.548Z,5.85
2023-02-11T12:41:01.912Z,6.50
2023-02-11T12:43:37.868Z,4.97
2023-02-11T12:46:21.066Z,5.60
2023-02-11T12:49:27.163Z,5.45
2023-02-11T12:52:13.441Z,6.25
2023-02-11T12:55:01.592Z,5.43
2023-02-11T12:57:32.497Z,5.88
2023-02-11T13:00:03.026Z,6.63
2023-02-11T13:02:32.692Z,5.72
2023-02-11T13:05:12.646Z,5.95
2023-02-11T13:07:44.749Z,6.70
2023-02-11T13:10:25.178Z,6.45
2023-02-11T13:13:11.578Z,5.30
2023-02-11T13:15:39.056Z,6.82
2023-02-11T13:18:19.829Z,6.53
2023-02-11T13:21:11.477Z,5.82
2023-02-11T13:24:16.094Z,5.90
2023-02-11T13:26:42.872Z,6.35
2023-02-11T13:29:36.179Z,6.32
2023-02-11T13:32:09.909Z,6.00
2023-02-11T13:34:42.945Z,6.00
2023-02-11T13:37:39.039Z,6.07
2023-02-11T13:40:22.601Z,5.82
2023-02-11T13:42:55.621Z,7.60
2023-02-11T13:45:25.312Z,6.88
2023-02-11T13:47:57.330Z,6.10
2023-02-11T13:50:25.907Z,7.28
2023-02-11T13:53:00.726Z,6.72
2023-02-11T13:58:06.008Z,6.63
2023-02-11T14:00:35.778Z,5.65
2023-02-11T14:03:30.534Z,6.10
2023-02-11T14:06:43.374Z,5.88
2023-02-11T14:09:10.136Z,5.93
2023-02-11T14:11:47.672Z,5.47
2023-02-11T14:14:17.559Z,6.75
2023-02-11T14:16:59.858Z,7.15
2023-02-11T14:19:38.724Z,6.35
2023-02-11T14:22:41.713Z,6.10
2023-02-11T14:25:34.893Z,6.03
2023-02-11T14:28:23.870Z,7.28
2023-02-11T14:31:04.247Z,9.02
2023-02-11T14:34:01.494Z,8.40
2023-02-11T14:36:55.627Z,9.13
2023-02-11T14:39:28.792Z,8.38
2023-02-11T14:41:55.945Z,10.13
2023-02-11T14:44:25.718Z,9.68
2023-02-11T14:46:54.361Z,8.50
2023-02-11T14:49:25.263Z,8.65
2023-02-11T14:51:54.743Z,7.60
2023-02-11T14:54:25.350Z,8.18
2023-02-11T14:57:08.951Z,8.43
2023-02-11T14:59:36.014Z,8.23
2023-02-11T15:02:03.184Z,7.90
2023-02-11T15:04:33.093Z,7.75
2023-02-11T15:07:06.101Z,6.43
2023-02-11T15:09:43.347Z,8.68
2023-02-11T15:12:23.819Z,8.00
2023-02-11T15:14:59.339Z,7.57
2023-02-11T15:17:28.986Z,8.15
2023-02-11T15:19:58.366Z,7.22
2023-02-11T15:22:30.517Z,8.82
2023-02-11T15:25:04.092Z,8.25
2023-02-11T15:27:42.653Z,7.32
2023-02-11T15:30:24.980Z,9.27
2023-02-11T15:33:00.518Z,8.80
2023-02-11T15:35:33.485Z,8.10
2023-02-11T15:38:00.612Z,8.60
2023-02-11T15:40:32.338Z,7.97
2023-02-11T15:43:07.601Z,8.43
2023-02-11T15:45:45.268Z,9.93
2023-02-11T15:48:22.971Z,7.95
2023-02-11T15:50:58.902Z,8.13
2023-02-11T15:53:27.901Z,9.45
2023-02-11T15:56:24.223Z,8.48
2023-02-11T15:58:53.955Z,10.65
2023-02-11T16:01:33.738Z,10.68
2023-02-11T16:04:01.709Z,9.38
2023-02-11T16:06:42.064Z,9.05
2023-02-11T16:09:08.818Z,13.82
2023-02-11T16:11:58.268Z,16.88
2023-02-11T16:14:29.585Z,14.57
2023-02-11T16:17:19.433Z,11.85
2023-02-11T16:19:48.268Z,10.25
2023-02-11T16:22:30.186Z,9.48
2023-02-11T16:24:58.799Z,13.32
2023-02-11T16:27:34.087Z,10.88
2023-02-11T16:30:01.004Z,10.85
2023-02-11T16:32:29.071Z,10.45
2023-02-11T16:34:59.416Z,9.07
2023-02-11T16:37:26.759Z,9.27
2023-02-11T16:39:54.566Z,7.78
2023-02-11T16:42:21.350Z,10.73
2023-02-11T16:44:48.076Z,10.15
2023-02-11T16:47:26.974Z,8.57
2023-02-11T16:49:54.369Z,8.10
2023-02-11T16:52:22.018Z,9.10
2023-02-11T16:54:48.917Z,8.65
2023-02-11T16:57:21.343Z,12.23
2023-02-11T16:59:48.795Z,11.00
2023-02-11T17:02:28.844Z,13.00
2023-02-11T17:04:58.367Z,10.13
2023-02-11T17:07:25.345Z,12.52
2023-02-11T17:09:52.299Z,12.52
2023-02-11T17:12:19.613Z,10.88
2023-02-11T17:14:46.442Z,11.95
2023-02-11T17:17:13.308Z,12.07
2023-02-11T17:19:40.058Z,13.57
2023-02-11T17:22:06.942Z,14.02
2023-02-11T17:24:33.741Z,16.27
2023-02-11T17:27:00.480Z,25.88
2023-02-11T17:29:27.384Z,12.02
2023-02-11T17:31:54.681Z,12.95
2023-02-11T17:34:22.570Z,14.73
2023-02-11T17:36:49.636Z,10.65
2023-02-11T17:39:16.525Z,14.20
2023-02-11T17:41:43.343Z,13.32
2023-02-11T17:44:12.541Z,13.68
2023-02-11T17:49:05.997Z,9.23
2023-02-11T17:51:35.019Z,13.13
2023-02-11T17:56:32.829Z,9.30
2023-02-11T17:58:59.515Z,9.55
2023-02-11T18:01:30.768Z,8.30
2023-02-11T18:03:57.805Z,10.70
2023-02-11T18:06:24.925Z,13.05
2023-02-11T18:08:51.763Z,10.43
2023-02-11T18:11:19.044Z,14.50
2023-02-11T18:13:45.823Z,9.60
2023-02-11T18:16:15.825Z,8.82
2023-02-11T18:18:43.526Z,6.10
2023-02-11T18:21:15.235Z,7.15
2023-02-11T18:23:42.483Z,9.57
2023-02-11T18:26:11.367Z,10.73
2023-02-11T18:28:38.883Z,7.57
2023-02-11T18:31:06.695Z,8.13
2023-02-11T18:33:34.179Z,9.93
2023-02-11T18:36:06.406Z,6.25
2023-02-11T18:38:33.336Z,10.05
2023-02-11T18:41:00.339Z,11.73
2023-02-11T18:43:31.628Z,9.50
2023-02-11T18:45:58.557Z,8.50
2023-02-11T18:48:27.244Z,6.15
2023-02-11T18:50:54.992Z,6.63
2023-02-11T18:53:22.447Z,5.90
2023-02-11T18:55:49.611Z,8.65
2023-02-11T18:58:16.633Z,7.07
2023-02-11T19:00:46.179Z,6.65
2023-02-11T19:03:13.059Z,6.75
2023-02-11T19:05:47.620Z,7.47
2023-02-11T19:08:14.634Z,8.35
2023-02-11T19:10:46.983Z,7.22
2023-02-11T19:13:14.595Z,4.95
2023-02-11T19:15:46.965Z,31.27
2023-02-11T19:18:14.913Z,12.57
2023-02-11T19:20:42.951Z,7.57
2023-02-11T19:23:10.446Z,8.95
2023-02-11T19:25:37.634Z,4.15
2023-02-11T19:28:04.515Z,3.63
2023-02-11T19:30:31.334Z,6.80
2023-02-11T19:32:58.389Z,7.30
2023-02-11T19:35:25.424Z,4.32
2023-02-11T19:37:52.256Z,6.30
2023-02-11T19:40:21.306Z,4.22
2023-02-11T19:42:48.229Z,4.13
2023-02-11T19:45:15.167Z,2.33
2023-02-11T19:47:41.955Z,1.45
2023-02-11T19:50:09.137Z,1.50
2023-02-11T19:52:40.249Z,1.90
2023-02-11T19:55:07.815Z,2.50
2023-02-11T19:57:34.704Z,1.95
2023-02-11T20:00:01.606Z,1.52
2023-02-11T20:02:29.308Z,5.43
2023-02-11T20:04:56.047Z,3.88
2023-02-11T20:07:22.838Z,2.75
2023-02-11T20:09:49.613Z,3.10
2023-02-11T20:12:16.324Z,6.07
2023-02-11T20:14:43.228Z,5.22
2023-02-11T20:17:09.918Z,7.25
2023-02-11T20:19:36.752Z,8.75
2023-02-11T20:22:03.577Z,8.85
2023-02-11T20:24:30.333Z,10.57
2023-02-11T20:26:57.090Z,9.65
2023-02-11T20:29:24.940Z,10.10
2023-02-11T20:31:51.852Z,5.97
2023-02-11T20:34:18.955Z,3.30
2023-02-11T20:36:52.078Z,4.22
2023-02-11T20:39:22.008Z,4.60
2023-02-11T20:41:48.956Z,9.85
2023-02-11T20:44:15.850Z,21.05
2023-02-11T20:46:46.112Z,7.50
2023-02-11T20:49:18.936Z,4.63
2023-02-11T20:51:46.402Z,4.45
2023-02-11T20:54:18.456Z,4.60
2023-02-11T20:56:48.148Z,8.30
2023-02-11T20:59:16.689Z,4.30
2023-02-11T21:01:47.953Z,5.28
2023-02-11T21:04:20.246Z,12.00
2023-02-11T21:06:50.106Z,4.60
2023-02-11T21:09:20.075Z,8.10
2023-02-11T21:11:47.105Z,6.60
2023-02-11T21:14:13.934Z,18.30
2023-02-11T21:16:44.127Z,5.68
2023-02-11T21:19:11.262Z,3.42
2023-02-11T21:21:38.776Z,6.85
2023-02-11T21:24:06.761Z,19.88
2023-02-11T21:26:35.430Z,6.85
2023-02-11T21:29:03.908Z,2.55
2023-02-11T21:31:32.494Z,1.20
2023-02-11T21:34:02.114Z,4.15
2023-02-11T21:36:29.877Z,3.45
2023-02-11T21:38:56.788Z,8.90
2023-02-11T21:41:24.900Z,6.25
2023-02-11T21:43:52.264Z,4.20
2023-02-11T21:46:20.531Z,4.38
2023-02-11T21:48:48.148Z,6.50
2023-02-11T21:51:17.219Z,6.18
2023-02-11T21:56:16.665Z,4.35
2023-02-11T21:58:44.124Z,4.15
2023-02-11T22:01:13.396Z,2.28
2023-02-11T22:06:14.881Z,1.95
2023-02-11T22:08:42.004Z,2.65
2023-02-11T22:11:11.567Z,2.95
2023-02-11T22:13:39.102Z,2.30
2023-02-11T22:16:08.279Z,1.98
2023-02-11T22:18:35.559Z,2.17
2023-02-11T22:21:09.457Z,1.35
2023-02-11T22:23:37.147Z,2.22
2023-02-11T22:26:18.841Z,1.77
2023-02-11T22:28:46.021Z,2.35
2023-02-11T22:31:14.500Z,2.00
2023-02-11T22:33:41.680Z,3.03
2023-02-11T22:36:14.257Z,2.30
2023-02-11T22:38:41.166Z,2.00
2023-02-11T22:41:09.897Z,1.90
2023-02-11T22:43:37.047Z,2.67
2023-02-11T22:46:06.266Z,1.80
2023-02-11T22:48:34.283Z,2.97
2023-02-11T22:51:47.239Z,2.83
2023-02-11T22:54:16.123Z,2.17
2023-02-11T22:56:43.172Z,2.33
2023-02-11T22:59:14.564Z,2.45
2023-02-11T23:01:42.121Z,2.05
2023-02-11T23:04:11.560Z,2.05
2023-02-11T23:06:38.718Z,2.72
2023-02-11T23:09:10.058Z,2.95
2023-02-11T23:11:36.906Z,3.28
2023-02-11T23:14:04.198Z,2.80
2023-02-11T23:16:33.512Z,2.60
2023-02-11T23:19:02.726Z,3.42
2023-02-11T23:23:59.105Z,2.72
2023-02-11T23:26:26.240Z,2.63
2023-02-11T23:28:53.192Z,2.88
2023-02-11T23:31:25.468Z,2.50
2023-02-11T23:33:52.863Z,3.00
2023-02-11T23:36:20.571Z,2.50
2023-02-11T23:38:48.548Z,2.53
2023-02-11T23:41:16.046Z,3.00
2023-02-11T23:43:43.208Z,3.15
2023-02-11T23:46:10.530Z,2.67
2023-02-11T23:48:37.862Z,3.42
2023-02-11T23:51:04.907Z,2.22
2023-02-11T23:53:31.712Z,3.47
2023-02-11T23:55:59.769Z,3.60
2023-02-11T23:58:26.577Z,3.05
